Time;durP1;ratioP1;P1;durP2;ratioP2;P2;SDS_P1;SDS_P2;PMS_P1;PMS_P2;Temp;Humidity;BMP_temperature;BMP_pressure;BME280_temperature;BME280_humidity;BME280_pressure;Samples;Min_cycle;Max_cycle;Signal;HPM_P1;HPM_P2
2023/06/14 00:01:21;;;;;;;8.55;3.85;;;23.00;67.50;;;;;;6187085;23;19985;-93
2023/06/14 00:03:48;;;;;;;6.43;2.60;;;23.00;67.60;;;;;;6187679;23;19993;-92
2023/06/14 00:06:14;;;;;;;9.10;3.15;;;22.90;67.10;;;;;;6185144;23;20092;-93
2023/06/14 00:08:40;;;;;;;8.07;2.95;;;22.90;67.50;;;;;;6167733;23;20025;-93
2023/06/14 00:11:06;;;;;;;8.27;3.25;;;22.90;67.40;;;;;;6190333;23;20009;-92
2023/06/14 00:13:34;;;;;;;6.88;2.85;;;22.90;67.50;;;;;;6164364;23;20070;-94
2023/06/14 00:16:00;;;;;;;5.07;2.65;;;22.80;67.30;;;;;;6163322;23;20012;-93
2023/06/14 00:18:29;;;;;;;7.10;3.00;;;22.80;67.30;;;;;;6163600;23;20099;-94
2023/06/14 00:20:55;;;;;;;9.10;3.10;;;22.80;67.00;;;;;;6163552;23;20013;-92
2023/06/14 00:23:23;;;;;;;6.30;3.00;;;22.70;67.20;;;;;;6163300;23;20009;-94
2023/06/14 00:25:49;;;;;;;5.85;3.05;;;22.70;67.00;;;;;;6191453;23;19997;-93
2023/06/14 00:28:14;;;;;;;7.63;3.03;;;22.70;67.30;;;;;;6163238;23;20032;-94
2023/06/14 00:30:43;;;;;;;7.60;2.85;;;22.70;67.50;;;;;;6163534;23;20004;-94
2023/06/14 00:33:09;;;;;;;7.30;2.75;;;22.60;67.50;;;;;;6189594;23;20008;-93
2023/06/14 00:35:38;;;;;;;8.38;2.97;;;22.60;67.40;;;;;;6163194;23;20001;-94
2023/06/14 00:38:09;;;;;;;6.03;2.85;;;22.60;67.20;;;;;;6162288;23;20440;-92
2023/06/14 00:40:35;;;;;;;6.78;3.22;;;22.50;67.10;;;;;;6167043;23;20069;-93
2023/06/14 00:43:00;;;;;;;5.38;2.83;;;22.50;67.40;;;;;;6170619;23;20001;-92
2023/06/14 00:45:31;;;;;;;6.80;2.97;;;22.50;67.60;;;;;;6162246;23;20064;-93
2023/06/14 00:47:57;;;;;;;6.57;2.70;;;22.40;67.60;;;;;;6163157;23;20005;-93
2023/06/14 00:50:24;;;;;;;6.57;2.95;;;22.40;67.60;;;;;;6163201;23;20135;-93
2023/06/14 00:52:50;;;;;;;7.65;2.58;;;22.40;67.60;;;;;;6163375;23;20005;-93
2023/06/14 00:55:19;;;;;;;5.00;2.70;;;22.40;67.50;;;;;;6163511;23;20005;-93
2023/06/14 00:57:45;;;;;;;6.60;3.17;;;22.30;67.20;;;;;;6166141;23;20077;-93
2023/06/14 01:00:11;;;;;;;9.30;2.72;;;22.30;67.50;;;;;;6193980;23;20001;-93
2023/06/14 01:02:39;;;;;;;6.22;3.03;;;22.30;67.40;;;;;;6174360;23;20064;-93
2023/06/14 01:05:17;;;;;;;10.98;3.30;;;22.30;67.70;;;;;;6185490;23;20008;-92
2023/06/14 01:08:01;;;;;;;6.28;2.75;;;22.30;67.30;;;;;;6172522;23;20092;-92
2023/06/14 01:10:45;;;;;;;7.18;2.90;;;22.20;67.60;;;;;;6164922;23;20004;-92
2023/06/14 01:13:19;;;;;;;6.93;2.75;;;22.20;67.60;;;;;;6162828;23;20039;-93
2023/06/14 01:15:46;;;;;;;7.05;2.80;;;22.10;67.20;;;;;;6164097;23;20032;-91
2023/06/14 01:18:17;;;;;;;8.23;2.90;;;22.10;67.10;;;;;;6181094;23;20065;-93
2023/06/14 01:20:50;;;;;;;12.10;2.70;;;22.10;67.20;;;;;;6214701;23;19985;-92
2023/06/14 01:23:23;;;;;;;7.28;2.90;;;22.10;67.20;;;;;;6188881;23;20005;-92
2023/06/14 01:25:52;;;;;;;5.97;2.50;;;22.10;67.00;;;;;;6171749;23;20005;-92
2023/06/14 01:28:20;;;;;;;4.50;2.50;;;22.00;66.90;;;;;;6165589;23;20427;-92
2023/06/14 01:30:49;;;;;;;5.90;2.53;;;22.00;67.30;;;;;;6168305;23;20058;-93
2023/06/14 01:33:23;;;;;;;5.28;2.38;;;22.00;67.00;;;;;;6168582;23;20155;-92
2023/06/14 01:35:54;;;;;;;8.93;2.47;;;21.90;66.40;;;;;;6165809;23;20071;-92
2023/06/14 01:38:22;;;;;;;;;;;21.90;66.80;;;;;;6165316;23;20423;-93
2023/06/14 01:40:48;;;;;;;5.55;2.50;;;21.90;67.70;;;;;;6164862;23;19900;-92
2023/06/14 01:43:17;;;;;;;9.23;2.60;;;21.90;67.10;;;;;;6164725;23;20387;-92
2023/06/14 01:45:48;;;;;;;5.50;2.50;;;21.90;67.20;;;;;;6164891;23;20005;-93
2023/06/14 01:48:14;;;;;;;;;;;21.80;67.50;;;;;;6165452;23;20055;-93
2023/06/14 01:50:40;;;;;;;7.85;2.92;;;21.80;67.80;;;;;;6166222;23;19900;-92
2023/06/14 01:53:10;;;;;;;9.57;2.33;;;21.80;67.40;;;;;;6167356;23;20502;-93
2023/06/14 01:55:43;;;;;;;5.35;2.67;;;21.80;67.30;;;;;;6165043;23;20396;-93
2023/06/14 01:58:13;;;;;;;5.70;2.50;;;21.70;67.00;;;;;;6164612;23;20068;-91
2023/06/14 02:00:38;;;;;;;5.93;2.67;;;21.70;66.60;;;;;;6164739;23;20064;-92
2023/06/14 02:03:04;;;;;;;4.72;2.58;;;21.60;66.60;;;;;;6164125;23;20013;-92
2023/06/14 02:05:30;;;;;;;4.53;2.55;;;21.60;66.60;;;;;;6164362;23;20027;-92
2023/06/14 02:07:56;;;;;;;6.00;2.78;;;21.60;66.80;;;;;;6164247;23;20001;-93
2023/06/14 02:10:24;;;;;;;4.63;2.80;;;21.60;67.20;;;;;;6193933;23;19997;-92
2023/06/14 02:12:50;;;;;;;8.32;3.05;;;21.50;67.00;;;;;;6179349;23;20044;-93
2023/06/14 02:15:19;;;;;;;7.47;2.35;;;21.50;67.50;;;;;;6181080;23;20328;-92
2023/06/14 02:17:47;;;;;;;10.45;2.72;;;21.50;68.30;;;;;;6165192;23;20450;-93
2023/06/14 02:20:15;;;;;;;5.43;2.38;;;21.40;67.30;;;;;;6164587;23;20001;-91
2023/06/14 02:22:41;;;;;;;6.22;2.58;;;21.40;67.30;;;;;;6164304;23;20011;-92
2023/06/14 02:25:08;;;;;;;5.15;2.60;;;21.40;66.80;;;;;;6164992;23;20028;-91
2023/06/14 02:27:36;;;;;;;5.82;2.90;;;21.40;66.80;;;;;;6165349;23;20033;-92
2023/06/14 02:30:04;;;;;;;4.15;2.13;;;21.40;66.80;;;;;;6164888;23;20033;-92
2023/06/14 02:32:31;;;;;;;6.20;2.55;;;21.30;66.80;;;;;;6170293;23;20040;-91
2023/06/14 02:34:57;;;;;;;4.78;2.40;;;21.30;66.90;;;;;;6187206;23;20079;-92
2023/06/14 02:37:26;;;;;;;4.75;2.30;;;21.30;67.40;;;;;;6187892;23;20045;-91
2023/06/14 02:39:51;;;;;;;5.05;2.20;;;21.30;67.60;;;;;;6203262;23;20001;-93
2023/06/14 02:42:17;;;;;;;7.35;3.15;;;21.30;67.20;;;;;;6171525;23;20041;-92
2023/06/14 02:44:43;;;;;;;7.18;2.60;;;21.30;67.10;;;;;;6167544;23;20064;-93
2023/06/14 02:47:10;;;;;;;7.30;2.60;;;21.20;67.10;;;;;;6165519;23;20001;-93
2023/06/14 02:49:36;;;;;;;4.82;2.38;;;21.20;67.80;;;;;;6164025;23;20059;-92
2023/06/14 02:52:02;;;;;;;3.67;2.28;;;21.20;67.10;;;;;;6164219;23;20293;-91
2023/06/14 02:54:30;;;;;;;4.50;2.53;;;21.20;67.00;;;;;;6164115;23;20001;-91
2023/06/14 02:56:56;;;;;;;4.13;2.17;;;21.20;66.80;;;;;;6191257;23;19997;-92
2023/06/14 02:59:25;;;;;;;6.97;2.50;;;21.10;66.80;;;;;;6163828;23;20008;-92
2023/06/14 03:01:51;;;;;;;7.50;2.60;;;21.10;66.90;;;;;;6171407;23;20005;-92
2023/06/14 03:04:16;;;;;;;8.13;2.72;;;21.10;67.00;;;;;;6164887;23;20007;-93
2023/06/14 03:06:44;;;;;;;6.63;2.78;;;21.10;66.90;;;;;;6164074;23;20384;-93
2023/06/14 03:09:10;;;;;;;7.88;2.53;;;21.00;66.90;;;;;;6190439;23;20031;-92
2023/06/14 03:11:35;;;;;;;8.02;2.65;;;21.00;66.80;;;;;;6162802;23;20009;-93
2023/06/14 03:14:04;;;;;;;8.35;2.58;;;21.00;66.70;;;;;;6164289;23;20005;-93
2023/06/14 03:16:29;;;;;;;6.25;2.63;;;20.90;66.80;;;;;;6164442;23;20147;-93
2023/06/14 03:18:55;;;;;;;4.68;2.53;;;20.90;66.90;;;;;;6167173;23;19997;-93
2023/06/14 03:21:24;;;;;;;6.07;2.72;;;20.90;67.20;;;;;;6184861;23;19981;-92
2023/06/14 03:23:52;;;;;;;11.60;3.22;;;20.90;67.10;;;;;;6172614;23;20088;-93
2023/06/14 03:26:18;;;;;;;5.38;2.25;;;20.90;67.10;;;;;;6164338;23;20013;-92
2023/06/14 03:28:45;;;;;;;5.00;2.47;;;20.80;66.90;;;;;;6163713;23;20631;-94
2023/06/14 03:31:12;;;;;;;6.85;2.53;;;20.80;66.70;;;;;;6164078;23;20036;-92
2023/06/14 03:33:39;;;;;;;8.55;2.35;;;20.80;66.90;;;;;;6163870;23;20104;-93
2023/06/14 03:36:06;;;;;;;7.65;2.80;;;20.70;66.60;;;;;;6190141;23;20001;-92
2023/06/14 03:38:34;;;;;;;5.85;2.42;;;20.70;67.20;;;;;;6163814;23;20005;-92
2023/06/14 03:41:00;;;;;;;4.82;2.53;;;20.70;67.10;;;;;;6164113;23;20012;-92
2023/06/14 03:43:27;;;;;;;6.70;2.60;;;20.70;67.00;;;;;;6164285;23;20005;-92
2023/06/14 03:45:53;;;;;;;5.32;2.58;;;20.70;67.60;;;;;;6164428;23;20443;-92
2023/06/14 03:48:19;;;;;;;5.20;2.40;;;20.60;67.30;;;;;;6164212;23;19997;-92
2023/06/14 03:50:45;;;;;;;10.35;2.85;;;20.60;67.20;;;;;;6163808;23;20005;-94
2023/06/14 03:53:13;;;;;;;3.58;2.30;;;20.60;67.20;;;;;;6166899;23;20005;-92
2023/06/14 03:55:41;;;;;;;4.93;2.50;;;20.60;67.60;;;;;;6187202;23;20001;-93
2023/06/14 03:58:07;;;;;;;5.22;2.30;;;20.50;67.50;;;;;;6187951;23;19989;-92
2023/06/14 04:00:33;;;;;;;5.65;2.50;;;20.50;67.90;;;;;;6186983;23;20089;-91
2023/06/14 04:02:58;;;;;;;5.60;2.70;;;20.50;67.70;;;;;;6166810;23;20448;-92
2023/06/14 04:05:26;;;;;;;5.47;2.78;;;20.50;67.90;;;;;;6163606;23;20005;-93
2023/06/14 04:07:55;;;;;;;5.93;2.55;;;20.50;68.00;;;;;;6164004;23;20005;-93
2023/06/14 04:10:21;;;;;;;6.38;2.63;;;20.50;68.20;;;;;;6170370;23;20078;-92
2023/06/14 04:12:46;;;;;;;5.68;2.85;;;20.40;68.20;;;;;;6175118;23;20006;-92
2023/06/14 04:15:15;;;;;;;5.85;2.28;;;20.40;68.40;;;;;;6159945;23;20065;-92
2023/06/14 04:17:44;;;;;;;7.95;2.67;;;20.40;68.10;;;;;;6158713;23;20009;-93
2023/06/14 04:20:10;;;;;;;8.57;3.00;;;20.40;68.40;;;;;;6183918;23;20080;-93
2023/06/14 04:22:36;;;;;;;8.38;2.50;;;20.40;68.40;;;;;;6159541;23;20340;-94
2023/06/14 04:25:03;;;;;;;8.88;2.60;;;20.40;68.70;;;;;;6159477;23;20040;-92
2023/06/14 04:27:31;;;;;;;8.10;2.70;;;20.40;68.60;;;;;;6186033;23;20440;-93
2023/06/14 04:29:57;;;;;;;8.38;2.65;;;20.40;68.50;;;;;;6182835;23;20061;-93
2023/06/14 04:32:29;;;;;;;5.75;2.50;;;20.40;68.40;;;;;;6197848;23;20017;-93
2023/06/14 04:35:00;;;;;;;7.15;2.75;;;20.40;68.20;;;;;;6158587;23;20006;-93
2023/06/14 04:37:30;;;;;;;;;;;20.30;68.70;;;;;;6159093;23;20005;-91
2023/06/14 04:39:57;;;;;;;7.57;2.97;;;20.30;69.60;;;;;;6158283;23;19908;-92
2023/06/14 04:42:30;;;;;;;4.65;2.10;;;20.30;69.20;;;;;;6160021;23;20084;-93
2023/06/14 04:44:57;;;;;;;6.30;2.63;;;20.30;69.50;;;;;;6159441;23;20055;-94
2023/06/14 04:47:24;;;;;;;4.85;2.53;;;20.30;68.90;;;;;;6160343;23;20002;-94
2023/06/14 04:49:53;;;;;;;5.65;2.55;;;20.30;68.80;;;;;;6159062;23;20005;-94
2023/06/14 04:52:20;;;;;;;4.40;2.55;;;20.20;68.70;;;;;;6160019;23;20080;-93
2023/06/14 04:54:51;;;;;;;7.18;2.47;;;20.20;69.00;;;;;;6159936;23;20009;-93
2023/06/14 04:57:17;;;;;;;5.13;2.45;;;20.20;69.40;;;;;;6184074;23;20002;-93
2023/06/14 04:59:45;;;;;;;4.88;2.30;;;20.20;69.40;;;;;;6160666;23;19997;-81
2023/06/14 05:02:11;;;;;;;6.35;2.60;;;20.20;69.40;;;;;;6153983;23;20010;-79
2023/06/14 05:04:39;;;;;;;9.98;2.55;;;20.20;69.20;;;;;;6155633;23;20037;-80
2023/06/14 05:07:08;;;;;;;4.47;2.45;;;20.20;69.00;;;;;;6155840;23;20006;-79
2023/06/14 05:09:33;;;;;;;8.05;2.80;;;20.20;69.40;;;;;;6154386;23;20008;-79
2023/06/14 05:12:00;;;;;;;5.65;2.42;;;20.20;69.50;;;;;;6179841;23;20018;-80
2023/06/14 05:14:26;;;;;;;7.18;3.00;;;20.20;69.60;;;;;;6184384;23;20319;-78
2023/06/14 05:16:53;;;;;;;6.50;2.40;;;20.20;69.80;;;;;;6187862;23;20005;-79
2023/06/14 05:19:20;;;;;;;8.55;2.58;;;20.20;69.80;;;;;;6163427;23;20444;-88
2023/06/14 05:21:49;;;;;;;7.55;2.40;;;20.20;70.00;;;;;;6185709;23;20013;-91
2023/06/14 05:24:17;;;;;;;5.38;2.72;;;20.20;70.10;;;;;;6137624;23;20016;-90
2023/06/14 05:26:43;;;;;;;5.68;2.97;;;20.20;70.10;;;;;;6160908;23;20001;-92
2023/06/14 05:29:09;;;;;;;7.10;2.95;;;20.20;70.20;;;;;;6160470;23;20010;-92
2023/06/14 05:31:37;;;;;;;4.30;2.38;;;20.20;70.20;;;;;;6186272;23;20006;-92
2023/06/14 05:34:03;;;;;;;4.35;2.60;;;20.20;70.30;;;;;;6165289;23;20001;-93
2023/06/14 05:36:29;;;;;;;5.47;2.85;;;20.20;70.50;;;;;;6166810;23;19997;-92
2023/06/14 05:39:02;;;;;;;7.03;2.40;;;20.30;70.70;;;;;;6180031;23;20386;-92
2023/06/14 05:41:31;;;;;;;5.85;2.47;;;20.20;70.80;;;;;;6162483;23;20427;-91
2023/06/14 05:43:57;;;;;;;6.03;2.58;;;20.30;70.90;;;;;;6160152;23;20323;-91
2023/06/14 05:46:25;;;;;;;8.30;2.92;;;20.30;71.20;;;;;;6159509;23;20006;-90
2023/06/14 05:48:57;;;;;;;8.20;2.83;;;20.20;70.90;;;;;;6184802;23;20029;-91
2023/06/14 05:51:26;;;;;;;7.00;2.88;;;20.20;71.10;;;;;;6159285;23;20009;-91
2023/06/14 05:53:52;;;;;;;6.20;3.00;;;20.30;71.30;;;;;;6159281;23;20009;-91
2023/06/14 05:56:19;;;;;;;4.30;2.40;;;20.30;71.30;;;;;;6159952;23;20328;-90
2023/06/14 06:01:39;;;;;;;7.30;2.28;;;20.30;71.80;;;;;;6152143;23;20006;-92
2023/06/14 06:04:08;;;;;;;11.35;2.90;;;20.40;71.90;;;;;;6159712;23;19998;-93
2023/06/14 06:06:35;;;;;;;7.30;2.78;;;20.40;72.00;;;;;;6158435;23;20025;-92
2023/06/14 06:09:01;;;;;;;6.38;2.67;;;20.40;71.70;;;;;;6158911;23;20080;-92
2023/06/14 06:11:27;;;;;;;5.57;2.47;;;20.40;71.40;;;;;;6158001;23;20017;-92
2023/06/14 06:13:52;;;;;;;8.50;3.10;;;20.40;71.40;;;;;;6181893;23;20014;-92
2023/06/14 06:16:18;;;;;;;9.45;2.60;;;20.40;71.70;;;;;;6157141;23;20037;-91
2023/06/14 06:18:44;;;;;;;9.27;3.45;;;20.50;71.70;;;;;;6156586;23;19998;-90
2023/06/14 06:21:15;;;;;;;6.60;2.78;;;20.50;72.50;;;;;;6157608;23;20092;-91
2023/06/14 06:23:41;;;;;;;5.88;2.67;;;20.50;72.00;;;;;;6133640;23;20009;-90
2023/06/14 06:26:07;;;;;;;4.10;2.60;;;20.60;72.20;;;;;;6158701;23;20002;-91
2023/06/14 06:28:33;;;;;;;5.07;2.40;;;20.60;71.90;;;;;;6160541;23;20036;-91
2023/06/14 06:31:03;;;;;;;5.15;2.70;;;20.60;71.80;;;;;;6171905;23;20104;-91
2023/06/14 06:33:29;;;;;;;3.67;2.22;;;20.70;71.30;;;;;;6180511;23;20017;-91
2023/06/14 06:35:58;;;;;;;4.72;2.95;;;20.70;71.00;;;;;;6182338;23;20009;-91
2023/06/14 06:38:26;;;;;;;7.57;2.42;;;20.70;71.30;;;;;;6167681;23;20009;-91
2023/06/14 06:41:07;;;;;;;4.70;2.40;;;20.80;71.50;;;;;;6159602;23;20077;-91
2023/06/14 06:43:37;;;;;;;6.38;2.42;;;20.80;71.40;;;;;;6160747;23;20010;-91
2023/06/14 06:46:06;;;;;;;4.97;2.58;;;20.80;71.70;;;;;;6198722;23;20006;-90
2023/06/14 06:48:35;;;;;;;3.78;2.42;;;20.90;71.90;;;;;;6200252;23;20001;-91
2023/06/14 06:51:12;;;;;;;6.63;2.80;;;20.90;71.70;;;;;;6183865;23;20005;-89
2023/06/14 06:53:43;;;;;;;7.82;2.60;;;20.90;71.60;;;;;;6158217;23;20017;-91
2023/06/14 06:56:19;;;;;;;;;;;;;;;;;;;;;
2023/06/14 06:58:55;;;;;;;;;;;;;;;;;;;;;
2023/06/14 07:01:28;;;;;;;6.88;2.40;;;21.10;71.90;;;;;;6159146;23;20077;-92
2023/06/14 07:04:07;;;;;;;5.28;2.38;;;21.10;71.60;;;;;;6158013;23;20005;-92
2023/06/14 07:06:35;;;;;;;4.35;2.33;;;21.10;71.90;;;;;;6158942;23;20008;-92
2023/06/14 07:09:04;;;;;;;7.60;2.17;;;21.20;72.00;;;;;;6182961;23;20066;-91
2023/06/14 07:11:32;;;;;;;11.77;2.60;;;21.30;72.00;;;;;;6157660;23;20555;-90
2023/06/14 07:13:58;;;;;;;6.38;2.22;;;21.30;71.70;;;;;;6157439;23;20002;-89
2023/06/14 07:16:24;;;;;;;9.90;2.55;;;21.40;71.60;;;;;;6156559;23;20257;-89
2023/06/14 07:18:50;;;;;;;5.45;2.10;;;21.40;71.30;;;;;;6156463;23;20092;-89
2023/06/14 07:21:20;;;;;;;3.58;2.35;;;21.40;71.50;;;;;;6157546;23;20056;-89
2023/06/14 07:23:48;;;;;;;7.03;2.17;;;21.50;71.70;;;;;;6160323;23;20412;-90
2023/06/14 07:26:14;;;;;;;7.18;2.60;;;21.60;71.90;;;;;;6157518;23;20033;-89
2023/06/14 07:28:40;;;;;;;3.78;2.22;;;21.60;72.00;;;;;;6156337;23;19997;-89
2023/06/14 07:31:06;;;;;;;7.10;2.67;;;21.70;71.80;;;;;;6132185;23;20038;-89
2023/06/14 07:33:32;;;;;;;4.88;2.20;;;21.70;71.20;;;;;;6157973;23;20079;-91
2023/06/14 07:36:01;;;;;;;4.50;2.10;;;21.80;70.60;;;;;;6158372;23;20044;-90
2023/06/14 07:38:27;;;;;;;3.72;1.70;;;21.80;70.80;;;;;;6183688;23;19997;-90
2023/06/14 07:40:52;;;;;;;5.68;2.00;;;21.90;70.50;;;;;;6156484;23;20002;-90
2023/06/14 07:43:18;;;;;;;3.78;2.00;;;21.90;70.80;;;;;;6157209;23;20037;-89
2023/06/14 07:45:46;;;;;;;4.18;1.75;;;22.00;70.70;;;;;;6156637;23;20527;-90
2023/06/14 07:48:12;;;;;;;6.53;2.08;;;22.00;70.30;;;;;;6181930;23;20383;-90
2023/06/14 07:50:37;;;;;;;4.95;1.88;;;22.10;70.20;;;;;;6133046;23;20085;-90
2023/06/14 07:53:03;;;;;;;5.25;1.65;;;22.10;70.20;;;;;;6157226;23;20763;-90
2023/06/14 07:55:29;;;;;;;4.13;1.83;;;22.20;69.80;;;;;;6169384;23;20438;-88
2023/06/14 07:57:57;;;;;;;5.63;1.70;;;22.30;69.60;;;;;;6187758;23;20368;-89
2023/06/14 08:00:23;;;;;;;2.50;1.50;;;22.30;69.40;;;;;;6156711;23;20080;-91
2023/06/14 08:02:58;;;;;;;9.00;2.10;;;22.40;69.00;;;;;;6156810;23;20424;-91
2023/06/14 08:05:24;;;;;;;3.38;1.52;;;22.40;67.80;;;;;;6157798;23;20029;-90
2023/06/14 08:07:53;;;;;;;4.65;1.50;;;22.40;67.20;;;;;;6157297;23;20088;-90
2023/06/14 08:10:20;;;;;;;2.65;1.60;;;22.50;67.50;;;;;;6157379;23;19998;-91
2023/06/14 08:12:48;;;;;;;3.53;1.50;;;22.60;67.90;;;;;;6156999;23;20014;-90
2023/06/14 08:15:14;;;;;;;3.83;1.42;;;22.70;68.10;;;;;;6156329;23;20005;-89
2023/06/14 08:17:43;;;;;;;3.00;1.58;;;22.70;68.00;;;;;;6157337;23;20413;-90
2023/06/14 08:20:10;;;;;;;2.55;1.52;;;22.80;67.90;;;;;;6158834;23;19998;-89
2023/06/14 08:22:42;;;;;;;2.42;1.63;;;22.80;67.30;;;;;;6157634;23;20016;-90
2023/06/14 08:25:12;;;;;;;3.50;1.50;;;22.90;67.10;;;;;;6157868;23;19998;-90
2023/06/14 08:27:39;;;;;;;2.28;1.83;;;22.90;67.90;;;;;;6158973;23;20424;-90
2023/06/14 08:30:05;;;;;;;4.13;1.55;;;23.00;67.20;;;;;;6159043;23;20009;-91
2023/06/14 08:32:33;;;;;;;4.20;1.67;;;23.10;67.30;;;;;;6134678;23;20024;-90
2023/06/14 08:35:02;;;;;;;7.57;1.60;;;23.10;66.70;;;;;;6135079;23;20060;-91
2023/06/14 08:37:29;;;;;;;7.63;2.42;;;23.20;64.60;;;;;;6160142;23;20013;-91
2023/06/14 08:39:56;;;;;;;3.38;1.40;;;23.20;63.10;;;;;;6159049;23;20001;-91
2023/06/14 08:42:24;;;;;;;5.65;1.80;;;23.20;63.20;;;;;;6160763;23;20001;-90
2023/06/14 08:45:00;;;;;;;;;;;;;;;;;;;;;
2023/06/14 08:48:07;;;;;;;3.63;1.83;;;23.40;64.50;;;;;;6161473;23;20096;-91
2023/06/14 08:50:36;;;;;;;3.65;2.13;;;23.40;64.80;;;;;;6161193;23;20052;-90
2023/06/14 08:53:04;;;;;;;3.15;1.75;;;23.50;64.10;;;;;;6163808;23;20033;-91
2023/06/14 08:55:32;;;;;;;6.10;2.00;;;23.50;64.00;;;;;;6158871;23;20006;-90
2023/06/14 08:58:00;;;;;;;3.42;1.90;;;23.60;62.80;;;;;;6160104;23;20004;-90
2023/06/14 09:00:28;;;;;;;3.85;1.60;;;23.60;62.80;;;;;;6159816;23;20056;-90
2023/06/14 09:03:40;;;;;;;2.30;1.73;;;23.70;63.50;;;;;;6168197;23;20016;-92
2023/06/14 09:05:43;;;;;;;2.75;1.73;;;23.80;63.80;;;;;;6189807;23;20037;-90
2023/06/14 09:08:12;;;;;;;5.55;1.90;;;23.80;63.30;;;;;;6176508;23;20005;-91
2023/06/14 09:10:41;;;;;;;6.55;1.70;;;23.80;62.70;;;;;;6183241;23;20010;-89
2023/06/14 09:13:16;;;;;;;6.18;2.00;;;23.90;62.40;;;;;;6162432;23;20021;-90
2023/06/14 09:16:00;;;;;;;3.95;1.77;;;23.90;62.70;;;;;;6158934;23;20006;-92
2023/06/14 09:18:51;;;;;;;3.40;1.80;;;24.00;63.10;;;;;;6184466;23;20100;-90
2023/06/14 09:21:22;;;;;;;2.35;1.60;;;24.10;63.70;;;;;;6159277;23;20040;-91
2023/06/14 09:23:50;;;;;;;2.22;1.60;;;24.10;63.60;;;;;;6159351;23;20009;-91
2023/06/14 09:26:29;;;;;;;;;;;;;;;;;;;;;
2023/06/14 09:28:55;;;;;;;6.35;1.85;;;24.20;63.10;;;;;;6159973;23;20084;-90
2023/06/14 09:31:24;;;;;;;4.70;1.70;;;24.30;62.50;;;;;;6160542;23;20020;-91
2023/06/14 09:33:51;;;;;;;5.28;1.67;;;24.30;61.60;;;;;;6159620;23;20016;-90
2023/06/14 09:36:25;;;;;;;2.67;1.42;;;24.40;61.00;;;;;;6158076;23;20372;-90
2023/06/14 09:39:04;;;;;;;2.55;1.67;;;24.40;60.90;;;;;;6158966;23;20439;-91
2023/06/14 09:41:40;;;;;;;3.55;1.63;;;24.50;61.90;;;;;;6159775;23;20045;-91
2023/06/14 09:44:11;;;;;;;5.63;1.65;;;24.60;62.50;;;;;;6158854;23;20003;-91
2023/06/14 09:46:40;;;;;;;2.85;1.63;;;24.60;62.60;;;;;;6159562;23;20001;-90
2023/06/14 09:49:07;;;;;;;1.70;1.20;;;24.70;62.80;;;;;;6158093;23;20002;-91
2023/06/14 09:51:43;;;;;;;4.63;1.55;;;24.70;62.70;;;;;;6158929;23;20001;-91
2023/06/14 09:54:15;;;;;;;3.50;1.42;;;24.80;62.80;;;;;;6159113;23;20016;-92
2023/06/14 09:56:50;;;;;;;4.38;1.85;;;24.80;61.90;;;;;;6160289;23;20002;-92
2023/06/14 09:59:34;;;;;;;3.13;1.33;;;24.90;61.70;;;;;;6160302;23;20002;-93
2023/06/14 10:02:23;;;;;;;3.90;1.67;;;24.90;61.40;;;;;;6185231;23;20320;-92
2023/06/14 10:05:21;;;;;;;3.55;1.50;;;24.90;61.70;;;;;;6160680;23;20004;-93
2023/06/14 10:08:09;;;;;;;3.33;1.63;;;25.00;62.50;;;;;;6159898;23;20012;-94
2023/06/14 10:11:15;;;;;;;;;;;;;;;;;;;;;
2023/06/14 10:20:24;;;;;;;3.88;1.60;;;25.30;61.60;;;;;;6181275;23;20423;-91
2023/06/14 10:23:08;;;;;;;3.30;1.40;;;25.30;61.60;;;;;;6168631;23;20217;-90
2023/06/14 10:25:34;;;;;;;2.08;1.55;;;25.40;61.40;;;;;;6210916;23;20335;-88
2023/06/14 10:28:30;;;;;;;4.78;1.83;;;25.40;61.40;;;;;;6213307;23;19985;-92
2023/06/14 10:34:05;;;;;;;5.80;1.40;;;25.50;60.90;;;;;;6169903;23;20013;-95
2023/06/14 10:36:34;;;;;;;2.90;1.50;;;25.60;60.60;;;;;;6191333;23;20047;-94
2023/06/14 10:39:25;;;;;;;;;;;;;;;;;;;;;
2023/06/14 10:42:01;;;;;;;3.13;1.73;;;25.70;60.00;;;;;;6190608;23;20080;-93
2023/06/14 10:44:59;;;;;;;;;;;;;;;;;;;;;
2023/06/14 10:47:34;;;;;;;4.93;1.45;;;25.80;59.80;;;;;;6190436;23;20036;-94
2023/06/14 10:50:09;;;;;;;4.40;1.50;;;25.80;59.50;;;;;;6164544;23;20055;-94
2023/06/14 10:52:53;;;;;;;2.28;1.42;;;25.80;59.10;;;;;;6190196;23;20056;-93
2023/06/14 10:55:24;;;;;;;5.43;1.80;;;25.90;58.80;;;;;;6163887;23;20012;-93
2023/06/14 10:57:55;;;;;;;3.25;1.20;;;25.90;58.90;;;;;;6164049;23;20033;-93
2023/06/14 11:00:40;;;;;;;;;;;;;;;;;;;;;
2023/06/14 11:03:51;;;;;;;4.63;1.52;;;26.00;59.10;;;;;;6188967;23;20088;-94
2023/06/14 11:06:23;;;;;;;3.70;1.48;;;26.00;58.80;;;;;;6163661;23;20522;-94
2023/06/14 11:09:05;;;;;;;2.58;1.50;;;26.10;57.20;;;;;;6174797;23;20017;-94
2023/06/14 11:11:35;;;;;;;3.67;1.60;;;26.10;57.10;;;;;;6203016;23;20032;-94
2023/06/14 11:14:34;;;;;;;2.50;1.80;;;26.10;57.40;;;;;;6164715;23;20009;-90
2023/06/14 11:17:15;;;;;;;2.13;1.40;;;26.10;57.00;;;;;;6186748;23;20023;-90
2023/06/14 11:20:25;;;;;;;;;;;;;;;;;;;;;
2023/06/14 11:23:10;;;;;;;2.63;1.73;;;26.20;57.40;;;;;;6205710;23;20013;-88
2023/06/14 11:25:41;;;;;;;5.00;1.70;;;26.30;56.30;;;;;;6168155;23;20024;-90
2023/06/14 11:28:24;;;;;;;;;;;;;;;;;;;;;
2023/06/14 11:31:25;;;;;;;2.67;1.63;;;26.30;56.90;;;;;;6189523;23;20051;-91
2023/06/14 11:34:12;;;;;;;;;;;;;;;;;;;;;
2023/06/14 11:36:51;;;;;;;;;;;;;;;;;;;;;
2023/06/14 11:39:33;;;;;;;3.13;1.63;;;26.40;57.00;;;;;;6200925;23;20013;-89
2023/06/14 11:42:03;;;;;;;4.22;1.77;;;26.50;56.80;;;;;;6184239;23;20009;-89
2023/06/14 11:44:55;;;;;;;3.50;1.48;;;26.50;56.80;;;;;;6186810;23;20008;-89
2023/06/14 11:48:03;;;;;;;4.25;1.60;;;26.50;57.10;;;;;;6193912;23;20083;-90
2023/06/14 11:50:28;;;;;;;2.08;1.55;;;26.60;57.40;;;;;;6188835;23;20005;-89
2023/06/14 11:53:09;;;;;;;;;;;;;;;;;;;;;
2023/06/14 11:55:50;;;;;;;;;;;;;;;;;;;;;
2023/06/14 11:58:18;;;;;;;3.50;1.50;;;26.70;55.70;;;;;;6185595;23;20080;-87
2023/06/14 12:01:09;;;;;;;;;;;;;;;;;;;;;
2023/06/14 12:04:15;;;;;;;4.68;1.60;;;26.70;54.70;;;;;;6188435;23;20085;-91
2023/06/14 12:07:08;;;;;;;;;;;;;;;;;;;;;
2023/06/14 12:09:58;;;;;;;2.00;1.50;;;26.80;54.90;;;;;;6189892;23;20072;-92
2023/06/14 12:16:47;;;;;;;3.30;1.90;;;26.80;53.80;;;;;;6190440;23;19900;-93
2023/06/14 12:19:03;;;;;;;3.05;1.58;;;26.80;54.20;;;;;;6144661;23;20297;-91
2023/06/14 12:21:35;;;;;;;2.97;1.55;;;26.80;53.40;;;;;;6168183;23;20005;-91
2023/06/14 12:24:14;;;;;;;;;;;;;;;;;;;;;
2023/06/14 12:26:41;;;;;;;2.20;1.50;;;26.90;54.40;;;;;;6197532;23;20021;-95
2023/06/14 12:29:29;;;;;;;7.30;1.88;;;26.90;55.00;;;;;;6174807;23;20036;-94
2023/06/14 12:31:58;;;;;;;2.88;1.48;;;27.00;55.00;;;;;;6209533;23;20017;-93
2023/06/14 12:34:26;;;;;;;3.65;1.60;;;27.00;55.00;;;;;;6173341;23;20009;-93
2023/06/14 12:36:53;;;;;;;4.82;1.60;;;27.10;55.50;;;;;;6168495;23;20037;-94
2023/06/14 12:39:28;;;;;;;7.47;1.80;;;27.10;55.70;;;;;;6165618;23;20428;-93
2023/06/14 12:42:03;;;;;;;2.83;1.42;;;27.20;54.80;;;;;;6165383;23;20005;-94
2023/06/14 12:44:43;;;;;;;;;;;;;;;;;;;;;
2023/06/14 12:47:16;;;;;;;1.67;1.13;;;27.20;55.60;;;;;;6193055;23;20084;-94
2023/06/14 12:49:48;;;;;;;1.60;1.33;;;27.30;55.70;;;;;;6169261;23;20005;-94
2023/06/14 12:52:18;;;;;;;3.95;1.60;;;27.30;55.40;;;;;;6177983;23;20014;-93
2023/06/14 12:57:53;;;;;;;;;;;;;;;;;;;;;
2023/06/14 13:00:31;;;;;;;2.65;1.40;;;27.40;55.80;;;;;;6212546;23;19981;-92
2023/06/14 13:02:59;;;;;;;3.70;1.60;;;27.50;55.40;;;;;;6176828;23;20080;-95
2023/06/14 13:05:35;;;;;;;1.75;1.23;;;27.50;54.90;;;;;;6167038;23;20012;-96
2023/06/14 13:08:10;;;;;;;4.70;1.48;;;27.50;55.20;;;;;;6188830;23;20423;-95
2023/06/14 13:10:38;;;;;;;3.85;1.38;;;27.60;55.20;;;;;;6163389;23;20020;-94
2023/06/14 13:13:19;;;;;;;;;;;;;;;;;;;;;
2023/06/14 13:15:46;;;;;;;2.30;1.30;;;27.60;55.00;;;;;;6185497;23;20029;-94
2023/06/14 13:18:14;;;;;;;3.53;1.40;;;27.70;54.30;;;;;;6159920;23;20002;-94
2023/06/14 13:20:51;;;;;;;4.97;1.48;;;27.60;53.80;;;;;;6161089;23;20001;-93
2023/06/14 13:23:21;;;;;;;6.85;1.23;;;27.70;53.90;;;;;;6161517;23;20012;-92
2023/06/14 13:25:49;;;;;;;3.35;1.42;;;27.70;54.00;;;;;;6160358;23;20005;-93
2023/06/14 13:28:24;;;;;;;1.75;0.80;;;27.70;53.40;;;;;;6160790;23;20029;-94
2023/06/14 13:30:55;;;;;;;2.08;1.05;;;27.70;53.10;;;;;;6161072;23;20002;-92
2023/06/14 13:33:23;;;;;;;4.97;1.42;;;27.80;53.90;;;;;;6187255;23;20009;-93
2023/06/14 13:35:49;;;;;;;5.45;1.20;;;27.80;52.80;;;;;;6166867;23;20332;-94
2023/06/14 13:38:30;;;;;;;;;;;;;;;;;;;;;
2023/06/14 13:41:06;;;;;;;;;;;;;;;;;;;;;
2023/06/14 13:43:32;;;;;;;7.50;2.58;;;27.90;53.10;;;;;;6167261;23;20052;-94
2023/06/14 13:46:03;;;;;;;12.40;1.90;;;27.90;52.50;;;;;;6185092;23;20424;-93
2023/06/14 13:48:28;;;;;;;3.70;1.30;;;27.90;52.60;;;;;;6159323;23;20379;-94
2023/06/14 13:51:07;;;;;;;;;;;;;;;;;;;;;
2023/06/14 13:54:11;;;;;;;;;;;;;;;;;;;;;
2023/06/14 13:57:04;;;;;;;1.60;1.08;;;28.00;52.40;;;;;;6159811;23;20516;-94